Time;durP1;ratioP1;P1;durP2;ratioP2;P2;SDS_P1;SDS_P2;PMS_P1;PMS_P2;Temp;Humidity;BMP_temperature;BMP_pressure;BME280_temperature;BME280_humidity;BME280_pressure;Samples;Min_cycle;Max_cycle;Signal;HPM_P1;HPM_P2
2023/07/17 00:02:33;;;;;;;;;;;;;;;14.00;100.00;101571.38;5036561;28;20353;-82
2023/07/17 00:04:59;;;;;;;;;;;;;;;14.01;100.00;101571.25;5036704;28;19920;-84
2023/07/17 00:07:25;;;;;;;;;;;;;;;14.02;100.00;101569.44;5036017;28;20316;-83
2023/07/17 00:09:51;;;;;;;;;;;;;;;13.98;100.00;101563.50;5036279;28;19913;-82
2023/07/17 00:12:16;;;;;;;;;;;;;;;13.95;100.00;101563.78;5036051;28;19971;-82
2023/07/17 00:14:42;;;;;;;;;;;;;;;13.91;100.00;101565.94;5036670;28;19939;-82
2023/07/17 00:17:08;;;;;;;;;;;;;;;13.91;100.00;101570.41;5018427;28;19913;-83
2023/07/17 00:19:33;;;;;;;;;;;;;;;13.90;100.00;101572.25;5018774;28;20143;-84
2023/07/17 00:21:58;;;;;;;;;;;;;;;13.90;100.00;101564.22;5035730;28;19924;-84
2023/07/17 00:24:23;;;;;;;;;;;;;;;13.90;100.00;101566.91;5018322;28;19917;-83
2023/07/17 00:26:48;;;;;;;;;;;;;;;13.91;100.00;101571.28;5018327;28;19917;-83
2023/07/17 00:29:23;;;;;;;;;;;;;;;13.91;100.00;101575.75;5018214;28;19967;-84
2023/07/17 00:31:48;;;;;;;;;;;;;;;13.89;100.00;101575.91;5035856;28;19927;-84
2023/07/17 00:34:13;;;;;;;;;;;;;;;13.88;100.00;101579.59;5002732;28;19995;-84
2023/07/17 00:36:39;;;;;;;;;;;;;;;13.91;100.00;101578.44;5018442;28;19916;-83
2023/07/17 00:39:04;;;;;;;;;;;;;;;13.94;100.00;101580.81;5035689;28;19943;-82
2023/07/17 00:41:29;;;;;;;;;;;;;;;13.96;100.00;101576.19;5019080;28;19968;-82
2023/07/17 00:43:57;;;;;;;;;;;;;;;13.99;100.00;101572.38;5036247;28;19927;-82
2023/07/17 00:46:26;;;;;;;;;;;;;;;13.99;100.00;101577.72;5035441;28;19935;-81
2023/07/17 00:48:57;;;;;;;;;;;;;;;13.99;100.00;101575.91;5035378;28;19913;-82
2023/07/17 00:51:29;;;;;;;;;;;;;;;14.01;100.00;101578.44;5035773;28;19944;-82
2023/07/17 00:53:58;;;;;;;;;;;;;;;14.02;100.00;101580.97;5035346;28;20009;-82
2023/07/17 00:56:27;;;;;;;;;;;;;;;14.01;100.00;101575.75;5035525;28;19996;-82
2023/07/17 00:58:52;;;;;;;;;;;;;;;13.99;100.00;101569.69;5017570;28;20345;-82
2023/07/17 01:01:18;;;;;;;;;;;;;;;13.98;100.00;101581.41;5017980;28;19917;-82
2023/07/17 01:03:43;;;;;;;;;;;;;;;13.97;100.00;101575.19;5035248;28;20435;-81
2023/07/17 01:06:08;;;;;;;;;;;;;;;13.98;100.00;101581.41;5035047;28;19917;-81
2023/07/17 01:08:34;;;;;;;;;;;;;;;13.98;100.00;101576.88;5035539;28;20015;-84
2023/07/17 01:17:07;;;;;;;;;;;;;;;14.16;100.00;101598.38;4935389;29;19921;-83
2023/07/17 01:19:32;;;;;;;;;;;;;;;14.24;100.00;101592.31;5023053;28;19913;-83
2023/07/17 01:22:07;;;;;;;;;;;;;;;14.30;100.00;101594.41;5034969;28;19999;-83
2023/07/17 01:24:36;;;;;;;;;;;;;;;14.35;100.00;101577.94;5034774;28;19959;-83
2023/07/17 01:27:07;;;;;;;;;;;;;;;14.39;100.00;101585.53;5016981;28;19913;-82
2023/07/17 01:29:33;;;;;;;;;;;;;;;14.42;100.00;101587.03;5034690;28;19924;-81
2023/07/17 01:31:58;;;;;;;;;;;;;;;14.41;100.00;101588.06;5034766;28;19913;-82
2023/07/17 01:34:24;;;;;;;;;;;;;;;14.45;100.00;101584.94;5035074;28;19963;-82
2023/07/17 01:36:52;;;;;;;;;;;;;;;14.47;100.00;101587.47;5034794;28;19988;-82
2023/07/17 01:39:17;;;;;;;;;;;;;;;14.53;100.00;101597.59;5034672;28;20007;-82
2023/07/17 01:41:49;;;;;;;;;;;;;;;14.54;100.00;101585.91;5034622;28;20002;-82
2023/07/17 01:50:21;;;;;;;;;;;;;;;14.71;100.00;101592.34;4954343;29;19964;-84
2023/07/17 01:52:47;;;;;;;;;;;;;;;14.74;100.00;101593.88;5024550;28;20308;-82
2023/07/17 01:55:12;;;;;;;;;;;;;;;14.72;100.00;101586.00;5017081;28;19913;-84
2023/07/17 01:57:37;;;;;;;;;;;;;;;14.69;100.00;101586.28;5034410;28;19917;-83
2023/07/17 02:00:07;;;;;;;;;;;;;;;14.68;100.00;101589.13;5033996;28;19917;-83
2023/07/17 02:02:32;;;;;;;;;;;;;;;14.68;100.00;101581.91;5034511;28;19920;-82
2023/07/17 02:04:58;;;;;;;;;;;;;;;14.70;100.00;101579.91;5034513;28;20289;-82
2023/07/17 02:07:23;;;;;;;;;;;;;;;14.73;100.00;101587.66;5033926;28;19921;-81
2023/07/17 02:09:49;;;;;;;;;;;;;;;14.81;100.00;101598.50;5034280;28;20002;-83
2023/07/17 02:12:17;;;;;;;;;;;;;;;14.88;100.00;101573.78;5034040;28;19928;-82
2023/07/17 02:14:42;;;;;;;;;;;;;;;14.87;100.00;101580.97;5033825;28;19913;-83
2023/07/17 02:17:08;;;;;;;;;;;;;;;14.85;100.00;101582.13;5033632;28;19955;-82
2023/07/17 02:19:33;;;;;;;;;;;;;;;14.81;100.00;101590.44;5034237;28;19917;-82
2023/07/17 02:21:58;;;;;;;;;;;;;;;14.77;100.00;101594.41;5034305;28;19921;-82
2023/07/17 02:24:24;;;;;;;;;;;;;;;14.72;100.00;101590.47;5034055;28;20015;-84
2023/07/17 02:26:49;;;;;;;;;;;;;;;14.66;100.00;101591.06;5033608;28;19970;-82
2023/07/17 02:29:15;;;;;;;;;;;;;;;14.59;100.00;101597.00;5033903;28;20372;-83
2023/07/17 02:31:40;;;;;;;;;;;;;;;14.55;100.00;101595.59;5034296;28;19924;-83
2023/07/17 02:34:07;;;;;;;;;;;;;;;14.54;100.00;101590.38;5033812;28;19917;-82
2023/07/17 02:36:32;;;;;;;;;;;;;;;14.56;100.00;101594.63;5016165;28;19913;-84
2023/07/17 02:38:57;;;;;;;;;;;;;;;14.60;100.00;101593.34;5016145;28;19924;-84
2023/07/17 02:41:23;;;;;;;;;;;;;;;14.62;100.00;101595.91;5016180;28;20063;-84
2023/07/17 02:43:51;;;;;;;;;;;;;;;14.60;100.00;101590.66;5033579;28;20284;-85
2023/07/17 02:46:16;;;;;;;;;;;;;;;14.56;100.00;101593.78;5016279;28;20329;-83
2023/07/17 02:48:41;;;;;;;;;;;;;;;14.55;100.00;101586.72;5016410;28;19913;-84
2023/07/17 02:51:07;;;;;;;;;;;;;;;14.53;100.00;101602.94;5033467;28;20289;-82
2023/07/17 02:53:32;;;;;;;;;;;;;;;14.52;100.00;101600.41;5016041;28;19917;-83
2023/07/17 02:55:57;;;;;;;;;;;;;;;14.50;100.00;101605.09;5033327;28;20348;-84
2023/07/17 02:58:23;;;;;;;;;;;;;;;14.49;100.00;101608.75;5034033;28;19917;-82
2023/07/17 03:00:48;;;;;;;;;;;;;;;14.46;100.00;101608.06;5033355;28;19917;-82
2023/07/17 03:03:14;;;;;;;;;;;;;;;14.42;100.00;101603.97;5033652;28;19917;-82
2023/07/17 03:05:39;;;;;;;;;;;;;;;14.42;100.00;101609.31;5033347;28;20359;-84
2023/07/17 03:08:05;;;;;;;;;;;;;;;14.43;100.00;101612.84;5036616;28;19917;-83
2023/07/17 03:10:30;;;;;;;;;;;;;;;14.39;100.00;101606.94;5038056;28;19917;-84
2023/07/17 03:12:55;;;;;;;;;;;;;;;14.37;100.00;101610.75;5019622;28;19921;-82
2023/07/17 03:21:54;;;;;;;;;;;;;;;14.36;100.00;101615.25;4958321;28;19974;-82
2023/07/17 03:24:20;;;;;;;;;;;;;;;14.38;100.00;101615.13;4998105;28;19917;-86
2023/07/17 03:26:45;;;;;;;;;;;;;;;14.40;100.00;101610.44;4997738;28;20354;-82
2023/07/17 03:35:20;;;;;;;;;;;;;;;14.35;100.00;101613.56;4918551;29;19917;-83
2023/07/17 03:37:45;;;;;;;;;;;;;;;14.34;100.00;101625.25;4989510;28;20009;-82
2023/07/17 03:40:11;;;;;;;;;;;;;;;14.29;100.00;101617.66;4997261;28;19995;-83
2023/07/17 03:42:36;;;;;;;;;;;;;;;14.27;100.00;101616.97;4996997;28;20347;-84
2023/07/17 03:45:02;;;;;;;;;;;;;;;14.29;100.00;101616.84;4997434;28;19933;-84
2023/07/17 03:47:28;;;;;;;;;;;;;;;14.39;100.00;101614.97;4995657;28;20362;-84
2023/07/17 03:49:53;;;;;;;;;;;;;;;14.47;100.00;101619.59;4996398;28;19975;-83
2023/07/17 03:52:18;;;;;;;;;;;;;;;14.46;100.00;101617.91;4997213;28;19984;-82
2023/07/17 03:54:44;;;;;;;;;;;;;;;14.20;100.00;101623.06;4997624;28;19917;-81
2023/07/17 03:57:10;;;;;;;;;;;;;;;13.93;100.00;101624.63;4995968;28;19917;-81
2023/07/17 03:59:50;;;;;;;;;;;;;;;13.77;100.00;101632.38;4997569;28;19914;-81
2023/07/17 04:02:15;;;;;;;;;;;;;;;13.62;100.00;101630.13;4996850;28;19914;-82
2023/07/17 04:04:41;;;;;;;;;;;;;;;13.51;100.00;101627.56;4996870;28;20393;-82
2023/07/17 04:07:06;;;;;;;;;;;;;;;13.42;100.00;101628.41;4996063;28;19918;-82
2023/07/17 04:09:31;;;;;;;;;;;;;;;13.34;100.00;101637.94;4996995;28;20431;-82
2023/07/17 04:11:57;;;;;;;;;;;;;;;13.29;100.00;101636.66;4997114;28;20460;-81
2023/07/17 04:14:25;;;;;;;;;;;;;;;13.21;100.00;101635.50;4997206;28;19918;-81
2023/07/17 04:16:50;;;;;;;;;;;;;;;13.24;100.00;101639.72;4996900;28;19914;-81
2023/07/17 04:19:15;;;;;;;;;;;;;;;13.26;100.00;101650.31;4995233;28;19924;-80
2023/07/17 04:21:41;;;;;;;;;;;;;;;13.28;100.00;101640.31;5025076;28;19920;-80
2023/07/17 04:24:06;;;;;;;;;;;;;;;13.30;100.00;101643.69;5035716;28;20012;-80
2023/07/17 04:26:31;;;;;;;;;;;;;;;13.33;100.00;101648.75;5035919;28;19920;-80
2023/07/17 04:28:57;;;;;;;;;;;;;;;13.39;100.00;101645.53;5036764;28;19917;-81
2023/07/17 04:31:22;;;;;;;;;;;;;;;13.41;100.00;101648.94;5035937;28;19917;-81
2023/07/17 04:33:48;;;;;;;;;;;;;;;13.43;100.00;101648.81;5036197;28;19913;-81
2023/07/17 04:36:13;;;;;;;;;;;;;;;13.41;100.00;101651.63;5018196;28;19917;-82
2023/07/17 04:38:38;;;;;;;;;;;;;;;13.42;100.00;101655.13;5035820;28;20408;-82
2023/07/17 04:41:04;;;;;;;;;;;;;;;13.45;100.00;101657.53;5035781;28;20272;-83
2023/07/17 04:43:30;;;;;;;;;;;;;;;13.48;100.00;101657.25;5035653;28;19920;-80
2023/07/17 04:45:55;;;;;;;;;;;;;;;13.54;100.00;101659.34;5017929;28;20324;-80
2023/07/17 04:48:20;;;;;;;;;;;;;;;13.63;100.00;101663.91;5035695;28;19924;-80
2023/07/17 04:50:46;;;;;;;;;;;;;;;13.71;100.00;101671.22;5035385;28;20399;-81
2023/07/17 04:53:11;;;;;;;;;;;;;;;13.78;100.00;101676.84;5035559;28;20411;-80
2023/07/17 04:55:36;;;;;;;;;;;;;;;13.84;100.00;101678.97;5017913;28;19917;-83
2023/07/17 04:58:01;;;;;;;;;;;;;;;13.91;100.00;101685.44;5035177;28;20365;-82
2023/07/17 05:00:27;;;;;;;;;;;;;;;13.98;100.00;101683.91;5035389;28;19917;-82
2023/07/17 05:02:52;;;;;;;;;;;;;;;14.05;100.00;101687.72;5017690;28;19913;-82
2023/07/17 05:05:18;;;;;;;;;;;;;;;14.08;100.00;101695.44;5035206;28;19917;-81
2023/07/17 05:07:43;;;;;;;;;;;;;;;14.12;100.00;101690.66;5034861;28;19971;-82
2023/07/17 05:10:10;;;;;;;;;;;;;;;14.16;100.00;101696.56;5035244;28;19948;-81
2023/07/17 05:12:36;;;;;;;;;;;;;;;14.16;100.00;101692.06;5035119;28;19984;-80
2023/07/17 05:15:01;;;;;;;;;;;;;;;14.23;100.00;101695.03;5034856;28;19932;-81
2023/07/17 05:17:26;;;;;;;;;;;;;;;14.31;100.00;101700.50;5017123;28;19971;-81
2023/07/17 05:19:52;;;;;;;;;;;;;;;14.42;100.00;101710.19;5035504;28;19924;-81
2023/07/17 05:22:17;;;;;;;;;;;;;;;14.52;100.00;101704.84;5034873;28;20349;-81
2023/07/17 05:24:42;;;;;;;;;;;;;;;14.63;100.00;101710.91;5035138;28;20023;-80
2023/07/17 05:27:07;;;;;;;;;;;;;;;14.73;100.00;101712.72;5035287;28;20269;-81
2023/07/17 05:29:33;;;;;;;;;;;;;;;14.78;100.00;101721.19;5016577;28;19923;-81
2023/07/17 05:31:58;;;;;;;;;;;;;;;14.82;100.00;101717.19;5034303;28;19913;-81
2023/07/17 05:34:23;;;;;;;;;;;;;;;14.88;100.00;101724.66;5034585;28;20361;-82
2023/07/17 05:36:49;;;;;;;;;;;;;;;15.01;100.00;101724.34;5016965;28;19968;-82
2023/07/17 05:39:14;;;;;;;;;;;;;;;15.14;100.00;101713.28;5034597;28;19917;-82
2023/07/17 05:41:39;;;;;;;;;;;;;;;15.27;100.00;101723.66;5034546;28;19917;-82
2023/07/17 05:44:14;;;;;;;;;;;;;;;15.34;100.00;101725.59;5034591;28;19912;-81
2023/07/17 05:49:53;;;;;;;;;;;;;;;15.37;100.00;101739.72;4954550;29;19923;-84
2023/07/17 05:52:18;;;;;;;;;;;;;;;15.40;100.00;101745.59;5014263;28;20286;-82
2023/07/17 05:54:43;;;;;;;;;;;;;;;15.45;100.00;101739.78;5034400;28;19967;-83
2023/07/17 05:57:09;;;;;;;;;;;;;;;15.59;100.00;101743.84;5034323;28;20380;-82
2023/07/17 05:59:34;;;;;;;;;;;;;;;15.79;100.00;101748.09;5034317;28;19992;-83
2023/07/17 06:01:59;;;;;;;;;;;;;;;15.92;100.00;101746.91;5034321;28;19936;-84
2023/07/17 06:04:24;;;;;;;;;;;;;;;15.99;100.00;101750.66;5034358;28;19917;-84
2023/07/17 06:06:50;;;;;;;;;;;;;;;15.95;100.00;101749.28;5034571;28;19917;-83
2023/07/17 06:09:15;;;;;;;;;;;;;;;15.91;100.00;101758.63;5034292;28;20419;-83
2023/07/17 06:11:40;;;;;;;;;;;;;;;15.82;100.00;101768.41;5020253;28;19966;-82
2023/07/17 06:14:06;;;;;;;;;;;;;;;15.90;100.00;101763.16;5034165;28;19921;-84
2023/07/17 06:16:31;;;;;;;;;;;;;;;15.96;100.00;101769.72;5034450;28;19913;-83
2023/07/17 06:18:56;;;;;;;;;;;;;;;16.10;100.00;101763.84;5034074;28;19952;-83
2023/07/17 06:21:22;;;;;;;;;;;;;;;16.28;100.00;101771.06;5033797;28;20431;-83
2023/07/17 06:23:47;;;;;;;;;;;;;;;16.39;100.00;101760.94;5034070;28;19913;-84
2023/07/17 06:26:13;;;;;;;;;;;;;;;16.38;100.00;101767.28;5016195;28;19913;-84
2023/07/17 06:28:39;;;;;;;;;;;;;;;16.21;100.00;101765.44;5033589;28;19917;-84
2023/07/17 06:31:05;;;;;;;;;;;;;;;16.21;100.00;101774.38;5017134;28;20363;-85
2023/07/17 06:33:34;;;;;;;;;;;;;;;16.29;100.00;101787.03;5016196;28;20022;-84
2023/07/17 06:36:02;;;;;;;;;;;;;;;16.40;100.00;101772.50;5034111;28;19996;-82
2023/07/17 06:38:27;;;;;;;;;;;;;;;16.60;100.00;101785.75;5035189;28;19917;-87
2023/07/17 06:40:53;;;;;;;;;;;;;;;16.68;100.00;101773.25;5016182;28;19940;-89
2023/07/17 06:43:18;;;;;;;;;;;;;;;16.62;100.00;101779.25;5003208;28;20000;-82
2023/07/17 06:45:44;;;;;;;;;;;;;;;16.61;100.00;101782.91;5019768;28;19923;-83
2023/07/17 06:48:09;;;;;;;;;;;;;;;16.65;100.00;101784.31;5019447;28;19925;-82
2023/07/17 06:50:36;;;;;;;;;;;;;;;16.80;100.00;101786.44;5003248;28;20360;-87
2023/07/17 06:59:11;;;;;;;;;;;;;;;17.20;100.00;101783.19;4938155;29;20013;-89
2023/07/17 07:01:36;;;;;;;;;;;;;;;17.34;100.00;101787.09;4922169;29;19957;-86
2023/07/17 07:04:03;;;;;;;;;;;;;;;17.44;100.00;101790.53;4937656;29;20418;-88
2023/07/17 07:06:31;;;;;;;;;;;;;;;17.41;100.00;101796.22;4962310;28;20289;-86
2023/07/17 07:08:57;;;;;;;;;;;;;;;17.43;100.00;101802.28;5020213;28;19913;-84
2023/07/17 07:11:22;;;;;;;;;;;;;;;17.51;100.00;101809.56;5002997;28;19955;-87
2023/07/17 07:13:47;;;;;;;;;;;;;;;17.58;100.00;101810.59;5019703;28;19917;-86
2023/07/17 07:16:13;;;;;;;;;;;;;;;17.60;100.00;101802.34;5019847;28;19944;-84
2023/07/17 07:18:39;;;;;;;;;;;;;;;17.82;100.00;101802.78;5038057;28;20394;-87
2023/07/17 07:21:04;;;;;;;;;;;;;;;17.85;100.00;101810.53;5037935;28;19916;-85
2023/07/17 07:23:29;;;;;;;;;;;;;;;18.00;100.00;101814.28;5038499;28;20238;-85
2023/07/17 07:25:55;;;;;;;;;;;;;;;18.19;100.00;101815.84;5038433;28;20023;-89
2023/07/17 07:28:21;;;;;;;;;;;;;;;18.39;100.00;101815.53;5037966;28;20012;-87
2023/07/17 07:30:46;;;;;;;;;;;;;;;18.30;100.00;101822.78;5037384;28;19983;-87
2023/07/17 07:33:12;;;;;;;;;;;;;;;18.24;100.00;101824.28;5002818;28;20329;-85
2023/07/17 07:35:38;;;;;;;;;;;;;;;18.27;100.00;101821.28;5036874;28;19918;-90
2023/07/17 07:38:03;;;;;;;;;;;;;;;18.24;100.00;101832.38;5036904;28;20020;-88
2023/07/17 07:40:28;;;;;;;;;;;;;;;18.49;100.00;101822.44;5036814;28;20254;-85
2023/07/17 07:42:54;;;;;;;;;;;;;;;18.72;100.00;101840.66;5037037;28;19959;-84
2023/07/17 07:45:21;;;;;;;;;;;;;;;18.92;100.00;101833.09;5037121;28;19917;-87
2023/07/17 07:47:46;;;;;;;;;;;;;;;19.13;100.00;101832.56;5036243;28;20328;-85
2023/07/17 07:50:15;;;;;;;;;;;;;;;19.22;100.00;101848.75;5036439;28;19913;-84
2023/07/17 07:52:40;;;;;;;;;;;;;;;19.06;100.00;101838.81;5036090;28;19948;-87
2023/07/17 07:55:06;;;;;;;;;;;;;;;18.99;100.00;101849.44;5018429;28;19956;-82
2023/07/17 07:57:31;;;;;;;;;;;;;;;19.12;100.00;101849.78;5036312;28;20015;-84
2023/07/17 07:59:56;;;;;;;;;;;;;;;18.99;100.00;101844.88;5036053;28;19924;-86
2023/07/17 08:02:23;;;;;;;;;;;;;;;19.15;100.00;101840.47;5018768;28;19917;-83
2023/07/17 08:04:49;;;;;;;;;;;;;;;19.29;100.00;101850.56;5019614;28;19970;-86
2023/07/17 08:07:14;;;;;;;;;;;;;;;19.29;100.00;101842.47;5037507;28;20323;-85
2023/07/17 08:09:39;;;;;;;;;;;;;;;19.40;100.00;101838.56;5002941;28;19932;-84
2023/07/17 08:12:06;;;;;;;;;;;;;;;19.62;100.00;101842.38;5003076;28;19917;-84
2023/07/17 08:14:31;;;;;;;;;;;;;;;19.96;100.00;101848.47;5037445;28;19955;-83
2023/07/17 08:16:56;;;;;;;;;;;;;;;19.95;100.00;101849.53;5036489;28;19963;-83
2023/07/17 08:19:22;;;;;;;;;;;;;;;19.81;100.00;101856.50;5037139;28;19956;-87
2023/07/17 08:21:47;;;;;;;;;;;;;;;19.63;100.00;101859.41;5037953;28;20226;-86
2023/07/17 08:24:13;;;;;;;;;;;;;;;19.67;100.00;101853.47;5019422;28;19939;-84
2023/07/17 08:26:38;;;;;;;;;;;;;;;19.66;100.00;101850.94;5037149;28;19924;-86
2023/07/17 08:29:07;;;;;;;;;;;;;;;19.87;100.00;101861.19;5019833;28;19919;-83
2023/07/17 08:31:33;;;;;;;;;;;;;;;19.79;100.00;101867.47;5021007;28;20003;-84
2023/07/17 08:34:17;;;;;;;;;;;;;;;19.60;100.00;101866.00;5019825;28;19920;-84
2023/07/17 08:36:47;;;;;;;;;;;;;;;19.41;100.00;101861.84;5035974;28;20368;-91
2023/07/17 08:39:13;;;;;;;;;;;;;;;19.29;100.00;101868.63;5038692;28;19936;-82
2023/07/17 08:41:58;;;;;;;;;;;;;;;19.35;100.00;101876.84;5018783;28;20345;-84
2023/07/17 08:44:24;;;;;;;;;;;;;;;19.43;100.00;101867.91;5013849;28;19917;-89
2023/07/17 08:46:51;;;;;;;;;;;;;;;19.58;100.00;101878.81;5020343;28;20375;-89
2023/07/17 08:49:18;;;;;;;;;;;;;;;19.41;100.00;101879.88;5037030;28;20321;-88
2023/07/17 08:51:46;;;;;;;;;;;;;;;19.27;100.00;101873.34;5036232;28;20323;-87
2023/07/17 08:54:12;;;;;;;;;;;;;;;19.46;100.00;101872.13;5035929;28;19920;-82
2023/07/17 08:56:38;;;;;;;;;;;;;;;19.78;100.00;101875.75;5035584;28;20324;-83
2023/07/17 08:59:04;;;;;;;;;;;;;;;19.80;100.00;101881.81;5035498;28;19993;-82
2023/07/17 09:07:36;;;;;;;;;;;;;;;19.41;100.00;101874.47;4936904;29;19962;-84
2023/07/17 09:10:20;;;;;;;;;;;;;;;19.62;100.00;101873.94;5023861;28;20281;-83
2023/07/17 09:12:54;;;;;;;;;;;;;;;20.03;100.00;101874.63;5017439;28;19945;-85
2023/07/17 09:15:21;;;;;;;;;;;;;;;20.29;100.00;101876.19;5035968;28;19913;-84
2023/07/17 09:17:46;;;;;;;;;;;;;;;20.12;100.00;101886.22;5035658;28;19963;-83
2023/07/17 09:20:13;;;;;;;;;;;;;;;19.63;100.00;101886.41;5034661;28;20324;-82
2023/07/17 09:22:41;;;;;;;;;;;;;;;19.78;100.00;101881.13;5035481;28;19948;-83
2023/07/17 09:25:07;;;;;;;;;;;;;;;20.26;100.00;101890.88;5035461;28;19921;-87
2023/07/17 09:27:44;;;;;;;;;;;;;;;20.51;100.00;101887.16;5017776;28;19916;-83
2023/07/17 09:30:11;;;;;;;;;;;;;;;20.82;100.00;101889.84;5035844;28;19917;-84
2023/07/17 09:32:36;;;;;;;;;;;;;;;21.48;99.50;101887.38;5034908;28;20389;-85
2023/07/17 09:35:06;;;;;;;;;;;;;;;21.92;85.74;101890.28;5035446;28;19917;-84
2023/07/17 09:37:32;;;;;;;;;;;;;;;21.93;87.11;101883.81;5035024;28;19913;-81
2023/07/17 09:40:01;;;;;;;;;;;;;;;21.42;90.01;101890.81;5035007;28;20388;-89
2023/07/17 09:42:26;;;;;;;;;;;;;;;21.74;93.45;101887.97;5018882;28;20426;-90
2023/07/17 09:44:52;;;;;;;;;;;;;;;22.70;74.67;101895.94;5018322;28;19965;-88
2023/07/17 09:47:19;;;;;;;;;;;;;;;22.58;76.40;101889.38;5036224;28;19913;-88
2023/07/17 09:49:45;;;;;;;;;;;;;;;21.75;72.14;101892.31;5035460;28;20376;-83
2023/07/17 09:52:11;;;;;;;;;;;;;;;21.48;80.39;101906.31;5035426;28;20248;-84
2023/07/17 09:54:37;;;;;;;;;;;;;;;22.00;78.76;101904.56;5016743;28;19917;-85
2023/07/17 09:57:03;;;;;;;;;;;;;;;22.27;77.38;101902.13;5035646;28;20012;-84
2023/07/17 09:59:41;;;;;;;;;;;;;;;21.62;82.33;101906.53;5017706;28;19917;-84
2023/07/17 10:02:12;;;;;;;;;;;;;;;21.00;96.23;101902.22;5035480;28;20416;-87
2023/07/17 10:04:42;;;;;;;;;;;;;;;20.33;100.00;101909.94;5017587;28;20397;-87
2023/07/17 10:07:08;;;;;;;;;;;;;;;19.92;100.00;101909.28;5035393;28;19992;-85
2023/07/17 10:09:41;;;;;;;;;;;;;;;20.46;100.00;101912.03;5035061;28;19913;-85
2023/07/17 10:12:07;;;;;;;;;;;;;;;21.33;100.00;101905.44;5018209;28;19924;-88
2023/07/17 10:14:33;;;;;;;;;;;;;;;21.55;100.00;101900.19;5034213;28;19913;-84
2023/07/17 10:16:58;;;;;;;;;;;;;;;21.25;99.93;101906.38;5034143;28;19913;-80
2023/07/17 10:19:42;;;;;;;;;;;;;;;20.92;94.83;101912.06;5016444;28;20380;-83
2023/07/17 10:22:12;;;;;;;;;;;;;;;20.49;99.54;101914.38;5033806;28;19940;-83
2023/07/17 10:24:39;;;;;;;;;;;;;;;19.93;100.00;101924.47;5034744;28;19959;-84
2023/07/17 10:27:04;;;;;;;;;;;;;;;19.03;100.00;101920.88;5033776;28;20281;-85
2023/07/17 10:29:40;;;;;;;;;;;;;;;18.61;100.00;101932.63;5016051;28;19917;-84
2023/07/17 10:32:10;;;;;;;;;;;;;;;18.07;100.00;101941.06;5034831;28;20357;-86
2023/07/17 10:34:51;;;;;;;;;;;;;;;17.87;100.00;101943.09;5034414;28;19988;-87
2023/07/17 10:37:17;;;;;;;;;;;;;;;17.59;100.00;101937.91;5034803;28;19917;-84
2023/07/17 10:39:42;;;;;;;;;;;;;;;17.22;100.00;101950.59;5017227;28;19950;-84
2023/07/17 10:42:08;;;;;;;;;;;;;;;16.92;100.00;101949.16;5034680;28;19919;-87
2023/07/17 10:44:33;;;;;;;;;;;;;;;16.36;100.00;101972.53;5036095;28;19959;-84
2023/07/17 10:46:59;;;;;;;;;;;;;;;15.73;100.00;101962.47;5017318;28;20260;-85
2023/07/17 10:49:24;;;;;;;;;;;;;;;15.24;100.00;101943.78;5035150;28;19913;-89
2023/07/17 10:51:52;;;;;;;;;;;;;;;14.96;100.00;101944.50;5020311;28;19985;-89
2023/07/17 10:54:33;;;;;;;;;;;;;;;15.02;100.00;101939.56;5016996;28;19924;-88
2023/07/17 10:57:07;;;;;;;;;;;;;;;15.46;100.00;101954.19;5017203;28;20285;-86
2023/07/17 10:59:33;;;;;;;;;;;;;;;15.85;100.00;101947.91;5034795;28;20039;-88
2023/07/17 11:02:02;;;;;;;;;;;;;;;15.96;100.00;101944.19;5017268;28;20372;-87
2023/07/17 11:04:28;;;;;;;;;;;;;;;16.34;100.00;101942.31;5017117;28;19913;-87
2023/07/17 11:07:05;;;;;;;;;;;;;;;16.80;100.00;101958.44;5034384;28;19920;-84
2023/07/17 11:09:30;;;;;;;;;;;;;;;17.27;100.00;101952.81;5016873;28;19928;-86
2023/07/17 11:11:57;;;;;;;;;;;;;;;17.76;100.00;101946.91;5033476;28;19913;-85
2023/07/17 11:14:22;;;;;;;;;;;;;;;18.05;100.00;101964.59;5015913;28;19917;-84
2023/07/17 11:17:11;;;;;;;;;;;;;;;18.07;100.00;101957.22;5016811;28;19913;-84
2023/07/17 11:19:36;;;;;;;;;;;;;;;18.56;100.00;101959.25;5033932;28;20377;-83
2023/07/17 11:22:02;;;;;;;;;;;;;;;18.88;100.00;101957.63;5016012;28;19975;-85
2023/07/17 11:24:30;;;;;;;;;;;;;;;19.62;100.00;101944.94;4999979;28;20015;-84
2023/07/17 11:26:58;;;;;;;;;;;;;;;20.04;100.00;101960.03;5016555;28;19917;-84
2023/07/17 11:29:23;;;;;;;;;;;;;;;20.07;100.00;101972.34;5020759;28;20353;-83
2023/07/17 11:31:55;;;;;;;;;;;;;;;20.78;100.00;101961.56;5042092;28;20008;-87
2023/07/17 11:34:23;;;;;;;;;;;;;;;21.60;100.00;101943.78;5038562;28;20360;-84
2023/07/17 11:36:49;;;;;;;;;;;;;;;22.00;100.00;101955.19;5038791;28;19913;-89
2023/07/17 11:39:17;;;;;;;;;;;;;;;21.00;100.00;101951.72;5037356;28;20449;-85
2023/07/17 11:41:50;;;;;;;;;;;;;;;20.56;100.00;101960.47;5019582;28;20369;-87
2023/07/17 11:44:27;;;;;;;;;;;;;;;20.50;100.00;101953.09;5037007;28;20031;-86
2023/07/17 11:46:54;;;;;;;;;;;;;;;20.81;100.00;101944.09;5037964;28;19963;-84
2023/07/17 11:49:20;;;;;;;;;;;;;;;20.71;100.00;101942.50;5019425;28;19967;-85
2023/07/17 11:51:46;;;;;;;;;;;;;;;21.08;100.00;101948.97;5019773;28;19940;-85
2023/07/17 11:54:11;;;;;;;;;;;;;;;21.51;100.00;101942.19;5018953;28;19913;-84
2023/07/17 11:56:55;;;;;;;;;;;;;;;;;;;;;
2023/07/17 11:59:27;;;;;;;;;;;;;;;21.93;100.00;101951.53;5033148;28;19913;-83
2023/07/17 12:01:53;;;;;;;;;;;;;;;21.89;100.00;101945.66;5004239;28;20011;-83
2023/07/17 12:04:22;;;;;;;;;;;;;;;21.89;100.00;101936.69;5019568;28;20009;-86
2023/07/17 12:06:48;;;;;;;;;;;;;;;22.94;100.00;101945.41;5036955;28;19913;-85
2023/07/17 12:09:14;;;;;;;;;;;;;;;23.28;96.78;101933.00;5019059;28;19943;-83
2023/07/17 12:11:43;;;;;;;;;;;;;;;23.12;96.92;101937.66;5003069;28;20281;-84
2023/07/17 12:14:08;;;;;;;;;;;;;;;23.04;88.46;101952.19;5036047;28;19913;-85
2023/07/17 12:16:35;;;;;;;;;;;;;;;23.05;89.42;101955.75;5018707;28;20357;-85
2023/07/17 12:19:00;;;;;;;;;;;;;;;23.03;88.72;101950.50;5003249;28;19924;-86
2023/07/17 12:21:25;;;;;;;;;;;;;;;22.74;83.74;101956.91;5017853;28;19921;-84
2023/07/17 12:23:51;;;;;;;;;;;;;;;22.88;89.66;101960.59;5035827;28;19913;-84
2023/07/17 12:26:17;;;;;;;;;;;;;;;23.03;93.44;101958.63;5018733;28;20308;-84
2023/07/17 12:28:43;;;;;;;;;;;;;;;22.79;89.71;101964.47;5035951;28;19940;-84
2023/07/17 12:31:08;;;;;;;;;;;;;;;22.63;82.42;101957.41;5035894;28;20353;-83
2023/07/17 12:33:34;;;;;;;;;;;;;;;22.51;94.77;101965.22;5018504;28;19913;-84
2023/07/17 12:36:00;;;;;;;;;;;;;;;22.20;82.66;101966.28;5036317;28;20351;-83
2023/07/17 12:38:47;;;;;;;;;;;;;;;21.94;83.61;101959.47;5018980;28;19913;-84
2023/07/17 12:47:21;;;;;;;;;;;;;;;21.73;100.00;101959.38;4974987;28;19917;-85
2023/07/17 12:49:47;;;;;;;;;;;;;;;21.96;81.48;101959.28;4974167;28;19922;-85
2023/07/17 12:52:13;;;;;;;;;;;;;;;21.77;84.11;101963.41;4980038;28;20037;-86
2023/07/17 12:54:44;;;;;;;;;;;;;;;21.55;82.35;101966.00;5017471;28;19956;-85
2023/07/17 12:57:10;;;;;;;;;;;;;;;21.55;80.16;101959.75;5035033;28;19917;-85
2023/07/17 12:59:35;;;;;;;;;;;;;;;21.61;82.32;101976.09;5035344;28;19920;-85
2023/07/17 13:02:12;;;;;;;;;;;;;;;;;;;;;
2023/07/17 13:04:38;;;;;;;;;;;;;;;21.77;90.77;101974.25;5035077;28;19913;-86
2023/07/17 13:07:03;;;;;;;;;;;;;;;22.27;93.16;101980.75;5035006;28;20024;-87
2023/07/17 13:15:18;;;;;;;;;;;;;;;23.70;80.71;101963.78;4973757;28;19945;-85
2023/07/17 13:17:48;;;;;;;;;;;;;;;23.20;79.54;101969.28;5002374;28;19913;-86
2023/07/17 13:20:19;;;;;;;;;;;;;;;22.83;79.01;101972.03;5016796;28;19917;-84
2023/07/17 13:22:44;;;;;;;;;;;;;;;22.52;85.82;101975.88;5014013;28;19921;-87